Aérodrome :
LOGIN :

S'inscrire | Disclaimer

   EN    FR    IT 

 










Légende :    VFR   VFR Marginal   IFR   IFR Intensif   IFR Très Intensif
Visi : 
Plafond : 
>= 8 km
>= 3000ft
5 à 8 km
1000 à 3000 ft
1500m à 5 km
500 à 1000 ft
800 à 1500m
200 à 500 ft
< 800m
< 200 ft
Symboles :   Orages  Brouillard  Fortes neiges  Fortes précipitations  Vent > 20 kt
SIGMETs :   Divers  Orages  Givrage  Turbulence  Onde Orograph.  Cendres Volcan.






- Altitude de l'aérodrome : 408 ft
- Code IATA : FKB


EDSB - Karlsruhe Baden Baden

DERNIER METAR :
  • 091950Z 02001KT 9999 FEW015 SCT032 OVC049 02/M00 Q1004

METARs EXPIRÉS :
  • 091920Z 04003KT 9999 FEW015 OVC047 02/M01 Q1004
  • 090450Z 06005KT CAVOK M03/M04 Q1004
  • 091850Z 03003KT 9999 SCT032 OVC046 02/M01 Q1004
  • 091820Z 03002KT 9999 FEW027 BKN032 OVC043 02/M01 Q1004
  • 091750Z 04004KT 9999 OVC032 02/M01 Q1003
  • 091720Z 06004KT 9999 OVC031 02/M01 Q1003

TAF TAF EDSB
Valide du 09 à 18h jusqu'au 10 à 18h UTC


091700Z 0918/1018 02006KT 9999 BKN030
BECMG 0922/1001 BKN010
TEMPO 1000/1009 1200 -RASN BR BKN003
BECMG 1009/1012 BKN015
PROB30
TEMPO 1009/1018 4000 -SHSNRA BKN012TCU



MET'MAP, la Météo Aéronautique d'un coup d'oeil ! - Copyright ORBIFLY Décembre 2007 - Disclaimer

ORBIFLY MET'MAP TEAM :

Programmation & Développement : Alexandra Zaïnal
Sur une idée originale de : Baudouin d'Aumeries
Soutien technique & logistique : Manuel Goepfert
Assistance : Marc-Olivier Méhu




SOURCES & CREDITS :

   NOAA